createdAt,value
2019-02-09T00:00:25.317Z,973.51
2019-02-09T00:03:57.096Z,973.72
2019-02-09T00:07:27.460Z,973.81
2019-02-09T00:10:57.650Z,974.07
2019-02-09T00:14:27.866Z,974.33
2019-02-09T00:17:58.058Z,974.72
2019-02-09T00:21:28.174Z,974.49
2019-02-09T00:24:58.479Z,974.74
2019-02-09T00:28:29.248Z,974.59
2019-02-09T00:31:59.416Z,974.66
2019-02-09T00:35:29.543Z,974.24
2019-02-09T00:39:00.622Z,973.76
2019-02-09T00:42:30.710Z,973.81
2019-02-09T00:46:00.917Z,974.15
2019-02-09T00:49:31.005Z,974.33
2019-02-09T00:53:01.087Z,974.5
2019-02-09T00:56:31.135Z,974.55
2019-02-09T01:00:01.299Z,974.6
2019-02-09T01:03:31.362Z,974.37
2019-02-09T01:07:01.358Z,974.73
2019-02-09T01:10:31.953Z,974.26
2019-02-09T01:14:02.343Z,974.07
2019-02-09T01:17:32.439Z,973.87
2019-02-09T01:21:02.727Z,973.24
2019-02-09T01:24:32.765Z,973.23
2019-02-09T01:28:03.583Z,973.26
2019-02-09T01:31:33.740Z,973.73
2019-02-09T01:35:05.358Z,973.71
2019-02-09T01:38:35.446Z,973.85
2019-02-09T01:42:06.413Z,973.92
2019-02-09T01:45:36.531Z,973.78
2019-02-09T01:49:06.669Z,974.16
2019-02-09T01:52:36.802Z,974.46
2019-02-09T01:56:06.955Z,974.61
2019-02-09T01:59:37.113Z,974.45
2019-02-09T02:00:19.762Z,974.45
2019-02-09T02:03:49.974Z,974.12
2019-02-09T02:07:20.079Z,974.45
2019-02-09T02:10:50.406Z,974.44
2019-02-09T02:14:20.479Z,974.62
2019-02-09T02:17:50.732Z,974.48
2019-02-09T02:21:20.910Z,974.64
2019-02-09T02:24:51.208Z,974.44
2019-02-09T02:28:21.206Z,974.52
2019-02-09T02:31:51.386Z,974.52
2019-02-09T02:35:21.744Z,974.78
2019-02-09T02:38:51.960Z,974.69
2019-02-09T02:42:22.978Z,974.09
2019-02-09T02:45:53.126Z,973.51
2019-02-09T02:49:23.217Z,973.14
2019-02-09T02:52:53.303Z,972.77
2019-02-09T02:56:23.349Z,972.46
2019-02-09T02:59:53.551Z,972.09
2019-02-09T03:03:23.655Z,971.84
2019-02-09T03:06:53.692Z,971.45
2019-02-09T03:10:23.853Z,971.55
2019-02-09T03:13:54.014Z,971.49
2019-02-09T03:17:24.157Z,971.4
2019-02-09T03:20:54.326Z,971.28
2019-02-09T03:24:24.422Z,971.19
2019-02-09T03:27:54.610Z,971.27
2019-02-09T03:31:24.802Z,971.32
2019-02-09T03:34:55.121Z,971.96
2019-02-09T03:38:25.251Z,971.81
2019-02-09T03:41:55.411Z,971.77
2019-02-09T03:45:27.981Z,971.64
2019-02-09T03:48:58.091Z,971.69
2019-02-09T03:52:28.215Z,972.25
2019-02-09T03:55:58.443Z,972.35
2019-02-09T03:59:29.181Z,972.33
2019-02-09T04:00:18.350Z,972.36
2019-02-09T04:03:48.455Z,972.38
2019-02-09T04:07:18.423Z,972.62
2019-02-09T04:10:48.544Z,972.79
2019-02-09T04:14:18.663Z,972.76
2019-02-09T04:17:49.161Z,972.76
2019-02-09T04:21:19.237Z,972.42
2019-02-09T04:24:49.286Z,972.36
2019-02-09T04:28:19.303Z,972.16
2019-02-09T04:31:49.401Z,972.44
2019-02-09T04:35:19.679Z,972.32
2019-02-09T04:38:49.848Z,972.23
2019-02-09T04:42:19.976Z,972.68
2019-02-09T04:45:51.162Z,972.94
2019-02-09T04:49:21.151Z,972.63
2019-02-09T04:52:51.469Z,972.71
2019-02-09T04:56:21.507Z,973.02
2019-02-09T04:59:51.694Z,973.14
2019-02-09T05:03:21.712Z,973.36
2019-02-09T05:06:51.841Z,973.52
2019-02-09T05:10:22.002Z,973.66
2019-02-09T05:13:52.290Z,973.79
2019-02-09T05:17:22.374Z,973.63
2019-02-09T05:20:52.432Z,973.8
2019-02-09T05:24:22.612Z,974
2019-02-09T05:27:52.864Z,973.73
2019-02-09T05:31:23.634Z,974.17
2019-02-09T05:34:53.873Z,974.56
2019-02-09T05:38:23.893Z,974.96
2019-02-09T05:41:54.080Z,975.16
2019-02-09T05:45:25.237Z,975.38
2019-02-09T05:48:56.385Z,975.88
2019-02-09T05:52:26.477Z,976.18
2019-02-09T05:55:56.660Z,976.22
2019-02-09T05:59:26.812Z,976.78
2019-02-09T06:00:19.423Z,976.83
2019-02-09T06:03:49.506Z,977.65
2019-02-09T06:07:19.675Z,978.25
2019-02-09T06:10:49.800Z,978.55
2019-02-09T06:14:19.850Z,978.99
2019-02-09T06:17:50.211Z,979.53
2019-02-09T06:21:20.326Z,979.94
2019-02-09T06:24:50.505Z,980.44
2019-02-09T06:28:20.622Z,981
2019-02-09T06:31:51.970Z,981.37
2019-02-09T06:35:22.758Z,982
2019-02-09T06:38:52.866Z,982.7
2019-02-09T06:42:22.924Z,983.54
2019-02-09T06:45:53.032Z,984.5
2019-02-09T06:49:24.130Z,984.47
2019-02-09T06:52:54.308Z,984.16
2019-02-09T06:56:24.326Z,983.82
2019-02-09T06:59:54.425Z,983.8
2019-02-09T07:03:24.552Z,983.81
2019-02-09T07:06:54.641Z,984.07
2019-02-09T07:10:56.198Z,984.39
2019-02-09T07:14:26.318Z,985
2019-02-09T07:17:56.454Z,984.7
2019-02-09T07:21:26.552Z,984.9
2019-02-09T07:24:56.522Z,984.6
2019-02-09T07:28:26.819Z,985.09
2019-02-09T07:31:56.837Z,985.29
2019-02-09T07:35:26.996Z,986.99
2019-02-09T07:38:57.085Z,988.59
2019-02-09T07:42:27.200Z,989.65
2019-02-09T07:45:57.409Z,989.95
2019-02-09T07:49:27.817Z,990.34
2019-02-09T07:52:58.425Z,990.11
2019-02-09T07:56:28.553Z,990.21
2019-02-09T07:59:58.741Z,990.77
2019-02-09T08:00:18.061Z,990.95
2019-02-09T08:03:48.219Z,990.67
2019-02-09T08:07:18.437Z,989.97
2019-02-09T08:10:48.486Z,990.02
2019-02-09T08:14:18.556Z,989.7
2019-02-09T08:17:48.702Z,988.97
2019-02-09T08:21:18.789Z,989.35
2019-02-09T08:24:48.998Z,989.74
2019-02-09T08:28:19.142Z,990.66
2019-02-09T08:31:49.364Z,990.83
2019-02-09T08:35:19.532Z,989.74
2019-02-09T08:38:49.624Z,989.6
2019-02-09T08:42:19.808Z,988.66
2019-02-09T08:45:50.096Z,989.26
2019-02-09T08:49:20.185Z,990.31
2019-02-09T08:52:51.482Z,991.1
2019-02-09T08:56:21.700Z,990.28
2019-02-09T08:59:51.859Z,990.9
2019-02-09T09:03:22.087Z,991.92
2019-02-09T09:06:52.256Z,992.87
2019-02-09T09:10:23.333Z,994.02
2019-02-09T09:13:53.381Z,994.6
2019-02-09T09:17:23.500Z,995.58
2019-02-09T09:20:56.168Z,997.01
2019-02-09T09:24:26.296Z,997.84
2019-02-09T09:27:56.604Z,999.8
2019-02-09T09:31:26.842Z,1001.05
2019-02-09T09:34:56.930Z,1000.57
2019-02-09T09:38:27.139Z,1001.01
2019-02-09T09:41:57.307Z,1000.57
2019-02-09T09:45:29.295Z,1000.1
2019-02-09T09:48:59.463Z,1001.07
2019-02-09T09:52:29.672Z,1002.06
2019-02-09T09:56:00.820Z,1003.11
2019-02-09T09:59:30.830Z,1002.37
2019-02-09T10:00:16.348Z,1002.18
2019-02-09T10:03:46.478Z,1002.62
2019-02-09T10:07:16.487Z,1001.89
2019-02-09T10:10:46.673Z,1002.65
2019-02-09T10:14:16.801Z,1003.1
2019-02-09T10:17:46.969Z,1002.88
2019-02-09T10:21:17.117Z,1003.9
2019-02-09T10:24:47.278Z,1003.58
2019-02-09T10:28:17.404Z,1002.65
2019-02-09T10:31:47.449Z,1002.59
2019-02-09T10:35:18.340Z,1004.09
2019-02-09T10:38:48.550Z,1004.32
2019-02-09T10:42:18.710Z,1004.93
2019-02-09T10:45:48.835Z,1004.5
2019-02-09T10:49:18.925Z,1004.44
2019-02-09T10:52:49.048Z,1005.47
2019-02-09T10:56:20.162Z,1005.9
2019-02-09T10:59:50.300Z,1006.44
2019-02-09T11:03:20.489Z,1007.56
2019-02-09T11:06:50.815Z,1007.55
2019-02-09T11:10:21.181Z,1009.24
2019-02-09T11:13:51.362Z,1010.12
2019-02-09T11:17:21.460Z,1010.41
2019-02-09T11:20:51.680Z,1009.13
2019-02-09T11:24:21.767Z,1005.66
2019-02-09T11:27:52.295Z,1006.06
2019-02-09T11:31:22.399Z,1004.97
2019-02-09T11:34:52.562Z,1003.06
2019-02-09T11:38:22.630Z,1002.55
2019-02-09T11:41:52.951Z,1003.14
2019-02-09T11:45:25.207Z,1003.95
2019-02-09T11:48:55.265Z,1005.11
2019-02-09T11:52:25.343Z,1006.01
2019-02-09T11:55:55.382Z,1006.11
2019-02-09T11:59:25.610Z,1006.87
2019-02-09T12:00:18.259Z,1007.41
2019-02-09T12:03:48.333Z,1007.76
2019-02-09T12:07:18.488Z,1009.75
2019-02-09T12:10:48.635Z,1010.15
2019-02-09T12:14:18.735Z,1011.47
2019-02-09T12:17:48.831Z,1010.41
2019-02-09T12:21:18.959Z,1010.32
2019-02-09T12:24:49.029Z,1010.26
2019-02-09T12:28:19.166Z,1010.22
2019-02-09T12:31:49.258Z,1009.31
2019-02-09T12:35:19.945Z,1007.99
2019-02-09T12:38:50.071Z,1006.54
2019-02-09T12:42:20.170Z,1006.64
2019-02-09T12:45:50.268Z,1006.21
2019-02-09T12:49:20.327Z,1005.46
2019-02-09T12:52:50.414Z,1006.86
2019-02-09T12:56:20.473Z,1007.77
2019-02-09T12:59:51.621Z,1006.33
2019-02-09T13:03:30.653Z,1007.42
2019-02-09T13:07:01.638Z,1008.25
2019-02-09T13:10:31.916Z,1008.5
2019-02-09T13:14:02.154Z,1008.16
2019-02-09T13:17:32.384Z,1008.13
2019-02-09T13:21:03.601Z,1007.43
2019-02-09T13:24:33.791Z,1006.78
2019-02-09T13:28:04.341Z,1008.12
2019-02-09T13:31:34.466Z,1008.53
2019-02-09T13:35:05.174Z,1007.9
2019-02-09T13:38:35.274Z,1007.16
2019-02-09T13:42:05.411Z,1008.32
2019-02-09T13:45:39.029Z,1008.72
2019-02-09T13:49:09.137Z,1008.92
2019-02-09T13:52:39.406Z,1008.76
2019-02-09T13:56:09.504Z,1006.36
2019-02-09T13:59:39.632Z,1005.83
2019-02-09T14:00:18.522Z,1005.82
2019-02-09T14:03:48.598Z,1005.34
2019-02-09T14:07:18.678Z,1005.3
2019-02-09T14:10:48.777Z,1005.28
2019-02-09T14:14:18.895Z,1004.73
2019-02-09T14:17:49.534Z,1003.93
2019-02-09T14:21:19.722Z,1001.58
2019-02-09T14:24:49.932Z,1000.25
2019-02-09T14:28:21.228Z,999.23
2019-02-09T14:31:51.416Z,998.84
2019-02-09T14:35:22.315Z,997.51
2019-02-09T14:38:52.507Z,996.12
2019-02-09T14:42:22.651Z,995.78
2019-02-09T14:45:52.763Z,995.89
2019-02-09T14:49:22.851Z,996.75
2019-02-09T14:52:53.096Z,996.4
2019-02-09T14:56:23.114Z,996.38
2019-02-09T14:59:53.334Z,996.5
2019-02-09T15:03:27.288Z,996.71
2019-02-09T15:07:00.368Z,997.24
2019-02-09T15:10:30.446Z,997.04
2019-02-09T15:14:00.577Z,996.64
2019-02-09T15:17:30.674Z,996.24
2019-02-09T15:21:01.181Z,995.99
2019-02-09T15:24:31.530Z,995.42
2019-02-09T15:28:01.577Z,995.1
2019-02-09T15:31:31.666Z,995.16
2019-02-09T15:35:03.434Z,995.47
2019-02-09T15:38:33.554Z,995.6
2019-02-09T15:42:03.790Z,995.41
2019-02-09T15:45:34.011Z,995.53
2019-02-09T15:49:04.177Z,995.44
2019-02-09T15:52:34.244Z,995.3
2019-02-09T15:56:04.416Z,995.17
2019-02-09T15:59:34.490Z,995.28
2019-02-09T16:00:18.431Z,995.23
2019-02-09T16:03:49.519Z,995.1
2019-02-09T16:07:19.557Z,995.25
2019-02-09T16:10:49.735Z,995.15
2019-02-09T16:14:19.896Z,995.36
2019-02-09T16:17:50.002Z,995.5
2019-02-09T16:21:20.120Z,995.79
2019-02-09T16:24:50.328Z,995.9
2019-02-09T16:28:20.546Z,996.17
2019-02-09T16:31:50.615Z,996.43
2019-02-09T16:35:21.314Z,996.53
2019-02-09T16:38:51.360Z,996.38
2019-02-09T16:42:21.439Z,996.34
2019-02-09T16:45:51.631Z,996.5
2019-02-09T16:49:21.745Z,996.41
2019-02-09T16:52:51.855Z,996.27
2019-02-09T16:56:22.012Z,996.2
2019-02-09T16:59:52.110Z,996.17
2019-02-09T17:03:22.198Z,996.23
2019-02-09T17:06:53.318Z,996
2019-02-09T17:10:23.465Z,995.7
2019-02-09T17:13:53.873Z,995.96
2019-02-09T17:17:23.891Z,995.5
2019-02-09T17:20:54.010Z,995.66
2019-02-09T17:24:24.148Z,995.49
2019-02-09T17:27:54.206Z,995.28
2019-02-09T17:31:24.657Z,995.22
2019-02-09T17:34:54.842Z,995.43
2019-02-09T17:38:24.960Z,995.53
2019-02-09T17:41:55.048Z,995.49
2019-02-09T17:45:27.776Z,995.4
2019-02-09T17:48:57.895Z,995
2019-02-09T17:52:27.922Z,994.93
2019-02-09T17:55:57.954Z,994.46
2019-02-09T17:59:28.089Z,994.06
2019-02-09T18:00:18.089Z,994.19
2019-02-09T18:03:48.197Z,994.26
2019-02-09T18:07:18.460Z,994.76
2019-02-09T18:10:48.603Z,995.09
2019-02-09T18:14:18.661Z,995.33
2019-02-09T18:17:48.870Z,995.62
2019-02-09T18:21:18.960Z,995.68
2019-02-09T18:24:49.176Z,995.44
2019-02-09T18:28:19.408Z,995.33
2019-02-09T18:31:49.570Z,995.4
2019-02-09T18:35:19.712Z,995.33
2019-02-09T18:38:49.829Z,995.83
2019-02-09T18:42:20.387Z,995.99
2019-02-09T18:45:57.482Z,996.1
2019-02-09T18:49:27.983Z,995.93
2019-02-09T18:52:58.341Z,996.34
2019-02-09T18:56:28.579Z,996.51
2019-02-09T18:59:58.780Z,996.28
2019-02-09T19:03:28.765Z,996.65
2019-02-09T19:06:58.995Z,997.22
2019-02-09T19:10:30.392Z,996.9
2019-02-09T19:14:00.464Z,997.03
2019-02-09T19:17:30.759Z,996.97
2019-02-09T19:21:01.399Z,996.84
2019-02-09T19:24:31.441Z,996.77
2019-02-09T19:28:01.623Z,996.82
2019-02-09T19:31:31.612Z,996.68
2019-02-09T19:35:01.827Z,996.79
2019-02-09T19:38:31.909Z,996.22
2019-02-09T19:42:02.596Z,996.17
2019-02-09T19:45:32.905Z,996.34
2019-02-09T19:49:03.293Z,996.66
2019-02-09T19:52:33.551Z,996.66
2019-02-09T19:56:03.865Z,996.38
2019-02-09T19:59:33.967Z,996.37
2019-02-09T20:00:18.027Z,996.35
2019-02-09T20:03:48.266Z,996.43
2019-02-09T20:07:18.473Z,996.84
2019-02-09T20:10:49.641Z,997.09
2019-02-09T20:14:19.800Z,997.22
2019-02-09T20:17:50.008Z,996.9
2019-02-09T20:21:20.147Z,997.08
2019-02-09T20:24:50.364Z,996.7
2019-02-09T20:28:20.432Z,996.25
2019-02-09T20:31:50.531Z,995.94
2019-02-09T20:35:27.550Z,995.73
2019-02-09T20:39:04.471Z,995.44
2019-02-09T20:42:34.895Z,995.5
2019-02-09T20:46:05.210Z,994.8
2019-02-09T20:49:35.441Z,994.3
2019-02-09T20:53:05.880Z,994.38
2019-02-09T20:56:35.968Z,994.32
2019-02-09T21:00:09.566Z,993.63
2019-02-09T21:03:39.534Z,993.56
2019-02-09T21:07:09.772Z,993.37
2019-02-09T21:10:39.871Z,992.44
2019-02-09T21:14:11.629Z,992.5
2019-02-09T21:17:41.716Z,991.7
2019-02-09T21:21:11.835Z,990.25
2019-02-09T21:24:41.805Z,990.24
2019-02-09T21:28:12.121Z,989.57
2019-02-09T21:31:42.300Z,989.68
2019-02-09T21:35:12.477Z,989.38
2019-02-09T21:38:42.565Z,989.28
2019-02-09T21:42:12.753Z,989.07
2019-02-09T21:45:45.324Z,988.68
2019-02-09T21:49:15.779Z,988.4
2019-02-09T21:52:45.848Z,988.22
2019-02-09T21:56:16.015Z,987.88
2019-02-09T21:59:46.034Z,987.6
2019-02-09T22:00:19.743Z,987.5
2019-02-09T22:03:49.932Z,987.5
2019-02-09T22:07:20.109Z,986.89
2019-02-09T22:10:50.227Z,986.4
2019-02-09T22:14:21.345Z,986.28
2019-02-09T22:17:51.550Z,986.14
2019-02-09T22:21:21.722Z,985.94
2019-02-09T22:24:52.103Z,985.78
2019-02-09T22:28:22.428Z,985.66
2019-02-09T22:31:52.656Z,985.56
2019-02-09T22:35:22.873Z,985.44
2019-02-09T22:38:53.072Z,985.22
2019-02-09T22:42:23.180Z,985.28
2019-02-09T22:45:53.288Z,985.23
2019-02-09T22:49:23.436Z,984.9
2019-02-09T22:52:54.044Z,984.99
2019-02-09T22:56:24.122Z,984.82
2019-02-09T22:59:54.240Z,984.46
2019-02-09T23:03:33.570Z,984.13
2019-02-09T23:07:13.655Z,984.11
2019-02-09T23:10:43.664Z,983.77
2019-02-09T23:14:13.782Z,983.9
2019-02-09T23:17:44.779Z,983.52
2019-02-09T23:21:14.898Z,983.46
2019-02-09T23:24:45.066Z,983.62
2019-02-09T23:28:15.194Z,983.42
2019-02-09T23:31:45.233Z,983.21
2019-02-09T23:35:15.440Z,983.25
2019-02-09T23:38:45.548Z,983.46
2019-02-09T23:42:15.621Z,983.46
2019-02-09T23:45:45.714Z,983.28
2019-02-09T23:49:15.910Z,983.37
2019-02-09T23:52:46.000Z,983.33
2019-02-09T23:56:16.141Z,983.39
2019-02-09T23:59:46.167Z,983.54
